sensor_id;sensor_type;location;lat;lon;timestamp;P1;durP1;ratioP1;P2;durP2;ratioP2
47856;SDS011;33618;49.972;8.242;2023-01-05T00:01:26;2.03;;;1.30;;
47856;SDS011;33618;49.972;8.242;2023-01-05T00:03:53;1.40;;;1.33;;
47856;SDS011;33618;49.972;8.242;2023-01-05T00:06:21;1.40;;;1.30;;
47856;SDS011;33618;49.972;8.242;2023-01-05T00:08:48;1.67;;;1.10;;
47856;SDS011;33618;49.972;8.242;2023-01-05T00:11:19;1.00;;;0.90;;
47856;SDS011;33618;49.972;8.242;2023-01-05T00:14:09;1.40;;;1.00;;
47856;SDS011;33618;49.972;8.242;2023-01-05T00:17:00;1.02;;;1.02;;
47856;SDS011;33618;49.972;8.242;2023-01-05T00:19:46;1.83;;;1.10;;
47856;SDS011;33618;49.972;8.242;2023-01-05T00:22:34;1.67;;;0.80;;
47856;SDS011;33618;49.972;8.242;2023-01-05T00:25:16;2.05;;;1.95;;
47856;SDS011;33618;49.972;8.242;2023-01-05T00:27:45;0.80;;;0.80;;
47856;SDS011;33618;49.972;8.242;2023-01-05T00:30:17;0.52;;;0.52;;
47856;SDS011;33618;49.972;8.242;2023-01-05T00:32:46;0.52;;;0.52;;
47856;SDS011;33618;49.972;8.242;2023-01-05T00:35:13;0.68;;;0.30;;
47856;SDS011;33618;49.972;8.242;2023-01-05T00:37:42;0.77;;;0.60;;
47856;SDS011;33618;49.972;8.242;2023-01-05T00:40:10;1.73;;;0.60;;
47856;SDS011;33618;49.972;8.242;2023-01-05T00:42:40;0.65;;;0.40;;
47856;SDS011;33618;49.972;8.242;2023-01-05T00:45:08;0.30;;;0.30;;
47856;SDS011;33618;49.972;8.242;2023-01-05T00:47:37;0.30;;;0.30;;
47856;SDS011;33618;49.972;8.242;2023-01-05T00:50:05;0.40;;;0.40;;
47856;SDS011;33618;49.972;8.242;2023-01-05T00:52:33;0.40;;;0.40;;
47856;SDS011;33618;49.972;8.242;2023-01-05T00:55:01;0.88;;;0.50;;
47856;SDS011;33618;49.972;8.242;2023-01-05T00:57:28;1.17;;;0.55;;
47856;SDS011;33618;49.972;8.242;2023-01-05T00:59:55;1.25;;;0.57;;
47856;SDS011;33618;49.972;8.242;2023-01-05T01:02:22;0.30;;;0.30;;
47856;SDS011;33618;49.972;8.242;2023-01-05T01:04:49;0.30;;;0.30;;
47856;SDS011;33618;49.972;8.242;2023-01-05T01:07:17;0.60;;;0.40;;
47856;SDS011;33618;49.972;8.242;2023-01-05T01:09:44;0.40;;;0.40;;
47856;SDS011;33618;49.972;8.242;2023-01-05T01:12:11;1.70;;;0.40;;
47856;SDS011;33618;49.972;8.242;2023-01-05T01:14:39;1.75;;;0.45;;
47856;SDS011;33618;49.972;8.242;2023-01-05T01:17:06;0.50;;;0.50;;
47856;SDS011;33618;49.972;8.242;2023-01-05T01:19:34;0.40;;;0.40;;
47856;SDS011;33618;49.972;8.242;2023-01-05T01:22:02;0.50;;;0.40;;
47856;SDS011;33618;49.972;8.242;2023-01-05T01:24:29;0.38;;;0.30;;
47856;SDS011;33618;49.972;8.242;2023-01-05T01:26:57;2.08;;;0.40;;
47856;SDS011;33618;49.972;8.242;2023-01-05T01:29:25;2.42;;;0.40;;
47856;SDS011;33618;49.972;8.242;2023-01-05T01:31:52;0.65;;;0.40;;
47856;SDS011;33618;49.972;8.242;2023-01-05T01:34:20;0.63;;;0.30;;
47856;SDS011;33618;49.972;8.242;2023-01-05T01:36:48;1.10;;;0.65;;
47856;SDS011;33618;49.972;8.242;2023-01-05T01:39:15;1.63;;;0.60;;
47856;SDS011;33618;49.972;8.242;2023-01-05T01:41:43;3.05;;;0.60;;
47856;SDS011;33618;49.972;8.242;2023-01-05T01:52:59;1.10;;;0.50;;
47856;SDS011;33618;49.972;8.242;2023-01-05T01:55:33;1.38;;;0.50;;
47856;SDS011;33618;49.972;8.242;2023-01-05T01:58:02;2.63;;;0.60;;
47856;SDS011;33618;49.972;8.242;2023-01-05T02:00:33;4.68;;;1.00;;
47856;SDS011;33618;49.972;8.242;2023-01-05T02:03:01;3.28;;;0.73;;
47856;SDS011;33618;49.972;8.242;2023-01-05T02:05:28;2.03;;;0.70;;
47856;SDS011;33618;49.972;8.242;2023-01-05T02:07:58;6.28;;;1.00;;
47856;SDS011;33618;49.972;8.242;2023-01-05T02:10:37;3.70;;;0.88;;
47856;SDS011;33618;49.972;8.242;2023-01-05T02:16:01;8.60;;;0.95;;
47856;SDS011;33618;49.972;8.242;2023-01-05T02:34:06;5.72;;;0.90;;
47856;SDS011;33618;49.972;8.242;2023-01-05T02:39:24;5.05;;;1.35;;
47856;SDS011;33618;49.972;8.242;2023-01-05T02:42:00;4.50;;;1.40;;
47856;SDS011;33618;49.972;8.242;2023-01-05T02:44:40;5.38;;;1.20;;
47856;SDS011;33618;49.972;8.242;2023-01-05T02:47:33;7.25;;;1.33;;
47856;SDS011;33618;49.972;8.242;2023-01-05T02:49:58;5.10;;;1.10;;
47856;SDS011;33618;49.972;8.242;2023-01-05T02:52:28;4.90;;;1.45;;
47856;SDS011;33618;49.972;8.242;2023-01-05T02:55:04;4.68;;;1.20;;
47856;SDS011;33618;49.972;8.242;2023-01-05T02:57:41;8.00;;;1.35;;
47856;SDS011;33618;49.972;8.242;2023-01-05T03:02:48;7.25;;;1.27;;
47856;SDS011;33618;49.972;8.242;2023-01-05T03:05:25;7.22;;;1.88;;
47856;SDS011;33618;49.972;8.242;2023-01-05T03:08:03;6.53;;;1.23;;
47856;SDS011;33618;49.972;8.242;2023-01-05T03:11:04;5.97;;;1.00;;
47856;SDS011;33618;49.972;8.242;2023-01-05T03:16:39;7.65;;;1.70;;
47856;SDS011;33618;49.972;8.242;2023-01-05T03:19:08;5.00;;;1.10;;
47856;SDS011;33618;49.972;8.242;2023-01-05T03:21:56;7.13;;;1.50;;
47856;SDS011;33618;49.972;8.242;2023-01-05T03:24:45;6.30;;;1.50;;
47856;SDS011;33618;49.972;8.242;2023-01-05T03:27:32;12.35;;;1.70;;
47856;SDS011;33618;49.972;8.242;2023-01-05T03:30:19;9.50;;;1.55;;
47856;SDS011;33618;49.972;8.242;2023-01-05T03:33:13;8.18;;;1.52;;
47856;SDS011;33618;49.972;8.242;2023-01-05T03:36:05;5.50;;;1.52;;
47856;SDS011;33618;49.972;8.242;2023-01-05T03:38:35;7.43;;;1.85;;
47856;SDS011;33618;49.972;8.242;2023-01-05T03:41:07;6.10;;;1.23;;
47856;SDS011;33618;49.972;8.242;2023-01-05T03:43:35;7.40;;;1.45;;
47856;SDS011;33618;49.972;8.242;2023-01-05T03:46:08;8.07;;;1.63;;
47856;SDS011;33618;49.972;8.242;2023-01-05T03:48:37;8.85;;;1.83;;
47856;SDS011;33618;49.972;8.242;2023-01-05T03:51:04;10.68;;;1.90;;
47856;SDS011;33618;49.972;8.242;2023-01-05T03:53:31;7.43;;;1.52;;
47856;SDS011;33618;49.972;8.242;2023-01-05T03:55:59;6.97;;;1.60;;
47856;SDS011;33618;49.972;8.242;2023-01-05T03:58:26;7.18;;;1.48;;
47856;SDS011;33618;49.972;8.242;2023-01-05T04:00:53;8.85;;;1.88;;
47856;SDS011;33618;49.972;8.242;2023-01-05T04:03:19;8.00;;;1.85;;
47856;SDS011;33618;49.972;8.242;2023-01-05T04:05:53;9.13;;;1.83;;
47856;SDS011;33618;49.972;8.242;2023-01-05T04:08:20;9.10;;;1.75;;
47856;SDS011;33618;49.972;8.242;2023-01-05T04:10:47;8.02;;;1.73;;
47856;SDS011;33618;49.972;8.242;2023-01-05T04:13:13;11.80;;;1.52;;
47856;SDS011;33618;49.972;8.242;2023-01-05T04:15:40;9.18;;;1.90;;
47856;SDS011;33618;49.972;8.242;2023-01-05T04:18:08;7.70;;;2.08;;
47856;SDS011;33618;49.972;8.242;2023-01-05T04:20:35;10.38;;;1.90;;
47856;SDS011;33618;49.972;8.242;2023-01-05T04:23:02;8.35;;;2.00;;
47856;SDS011;33618;49.972;8.242;2023-01-05T04:25:28;6.95;;;1.95;;
47856;SDS011;33618;49.972;8.242;2023-01-05T04:27:55;10.85;;;1.70;;
47856;SDS011;33618;49.972;8.242;2023-01-05T04:30:22;8.00;;;1.90;;
47856;SDS011;33618;49.972;8.242;2023-01-05T04:32:49;9.45;;;1.90;;
47856;SDS011;33618;49.972;8.242;2023-01-05T04:35:16;13.30;;;1.73;;
47856;SDS011;33618;49.972;8.242;2023-01-05T04:37:43;5.78;;;1.60;;
47856;SDS011;33618;49.972;8.242;2023-01-05T04:40:11;6.70;;;1.88;;
47856;SDS011;33618;49.972;8.242;2023-01-05T04:42:38;11.23;;;2.20;;
47856;SDS011;33618;49.972;8.242;2023-01-05T04:45:06;7.10;;;1.45;;
47856;SDS011;33618;49.972;8.242;2023-01-05T04:47:33;8.98;;;1.88;;
47856;SDS011;33618;49.972;8.242;2023-01-05T04:50:00;8.85;;;1.70;;
47856;SDS011;33618;49.972;8.242;2023-01-05T04:52:27;10.82;;;1.98;;
47856;SDS011;33618;49.972;8.242;2023-01-05T04:54:54;7.97;;;1.95;;
47856;SDS011;33618;49.972;8.242;2023-01-05T04:57:21;6.57;;;1.60;;
47856;SDS011;33618;49.972;8.242;2023-01-05T04:59:52;8.25;;;1.90;;
47856;SDS011;33618;49.972;8.242;2023-01-05T05:02:19;10.70;;;1.98;;
47856;SDS011;33618;49.972;8.242;2023-01-05T05:04:46;10.55;;;1.83;;
47856;SDS011;33618;49.972;8.242;2023-01-05T05:07:13;13.70;;;1.95;;
47856;SDS011;33618;49.972;8.242;2023-01-05T05:09:40;6.75;;;2.08;;
47856;SDS011;33618;49.972;8.242;2023-01-05T05:12:08;9.13;;;1.67;;
47856;SDS011;33618;49.972;8.242;2023-01-05T05:14:35;8.20;;;1.73;;
47856;SDS011;33618;49.972;8.242;2023-01-05T05:17:02;12.57;;;1.98;;
47856;SDS011;33618;49.972;8.242;2023-01-05T05:19:29;8.48;;;1.65;;
47856;SDS011;33618;49.972;8.242;2023-01-05T05:21:56;7.25;;;1.55;;
47856;SDS011;33618;49.972;8.242;2023-01-05T05:24:23;13.60;;;1.73;;
47856;SDS011;33618;49.972;8.242;2023-01-05T05:26:50;9.95;;;2.20;;
47856;SDS011;33618;49.972;8.242;2023-01-05T05:29:17;5.13;;;1.40;;
47856;SDS011;33618;49.972;8.242;2023-01-05T05:31:44;12.00;;;1.77;;
47856;SDS011;33618;49.972;8.242;2023-01-05T05:34:11;7.07;;;2.17;;
47856;SDS011;33618;49.972;8.242;2023-01-05T05:36:38;9.70;;;1.48;;
47856;SDS011;33618;49.972;8.242;2023-01-05T05:39:05;7.75;;;1.98;;
47856;SDS011;33618;49.972;8.242;2023-01-05T05:41:32;6.65;;;1.83;;
47856;SDS011;33618;49.972;8.242;2023-01-05T05:43:59;9.93;;;1.55;;
47856;SDS011;33618;49.972;8.242;2023-01-05T05:46:28;12.10;;;2.20;;
47856;SDS011;33618;49.972;8.242;2023-01-05T05:48:56;9.77;;;1.50;;
47856;SDS011;33618;49.972;8.242;2023-01-05T05:51:24;6.82;;;1.65;;
47856;SDS011;33618;49.972;8.242;2023-01-05T05:53:52;10.95;;;2.00;;
47856;SDS011;33618;49.972;8.242;2023-01-05T05:56:19;6.65;;;1.85;;
47856;SDS011;33618;49.972;8.242;2023-01-05T05:58:46;8.32;;;1.80;;
47856;SDS011;33618;49.972;8.242;2023-01-05T06:01:13;9.05;;;1.98;;
47856;SDS011;33618;49.972;8.242;2023-01-05T06:03:40;10.90;;;1.98;;
47856;SDS011;33618;49.972;8.242;2023-01-05T06:06:07;8.60;;;2.05;;
47856;SDS011;33618;49.972;8.242;2023-01-05T06:08:36;6.80;;;1.40;;
47856;SDS011;33618;49.972;8.242;2023-01-05T06:11:06;13.35;;;1.50;;
47856;SDS011;33618;49.972;8.242;2023-01-05T06:13:33;8.48;;;1.60;;
47856;SDS011;33618;49.972;8.242;2023-01-05T06:16:00;9.75;;;2.10;;
47856;SDS011;33618;49.972;8.242;2023-01-05T06:18:27;10.77;;;2.03;;
47856;SDS011;33618;49.972;8.242;2023-01-05T06:20:58;10.00;;;1.85;;
47856;SDS011;33618;49.972;8.242;2023-01-05T06:23:27;10.38;;;1.90;;
47856;SDS011;33618;49.972;8.242;2023-01-05T06:25:54;6.95;;;2.15;;
47856;SDS011;33618;49.972;8.242;2023-01-05T06:28:21;7.20;;;1.60;;
47856;SDS011;33618;49.972;8.242;2023-01-05T06:30:49;8.77;;;1.67;;
47856;SDS011;33618;49.972;8.242;2023-01-05T06:33:18;7.50;;;1.48;;
47856;SDS011;33618;49.972;8.242;2023-01-05T06:35:46;12.50;;;2.17;;
47856;SDS011;33618;49.972;8.242;2023-01-05T06:38:13;6.05;;;1.58;;
47856;SDS011;33618;49.972;8.242;2023-01-05T06:40:45;9.05;;;1.75;;
47856;SDS011;33618;49.972;8.242;2023-01-05T06:43:12;5.18;;;1.23;;
47856;SDS011;33618;49.972;8.242;2023-01-05T06:45:39;8.50;;;1.77;;
47856;SDS011;33618;49.972;8.242;2023-01-05T06:48:10;7.50;;;1.60;;
47856;SDS011;33618;49.972;8.242;2023-01-05T06:50:37;6.32;;;1.85;;
47856;SDS011;33618;49.972;8.242;2023-01-05T06:53:04;5.63;;;1.33;;
47856;SDS011;33618;49.972;8.242;2023-01-05T06:55:32;7.90;;;1.40;;
47856;SDS011;33618;49.972;8.242;2023-01-05T06:57:59;5.70;;;1.50;;
47856;SDS011;33618;49.972;8.242;2023-01-05T07:00:29;8.68;;;1.50;;
47856;SDS011;33618;49.972;8.242;2023-01-05T07:02:57;6.65;;;1.83;;
47856;SDS011;33618;49.972;8.242;2023-01-05T07:05:24;6.47;;;1.33;;
47856;SDS011;33618;49.972;8.242;2023-01-05T07:07:51;9.07;;;1.88;;
47856;SDS011;33618;49.972;8.242;2023-01-05T07:10:18;5.70;;;1.42;;
47856;SDS011;33618;49.972;8.242;2023-01-05T07:12:45;7.45;;;1.33;;
47856;SDS011;33618;49.972;8.242;2023-01-05T07:15:16;5.30;;;1.08;;
47856;SDS011;33618;49.972;8.242;2023-01-05T07:17:44;7.20;;;1.60;;
47856;SDS011;33618;49.972;8.242;2023-01-05T07:20:11;8.32;;;1.50;;
47856;SDS011;33618;49.972;8.242;2023-01-05T07:22:38;8.50;;;1.35;;
47856;SDS011;33618;49.972;8.242;2023-01-05T07:25:05;8.82;;;1.55;;
47856;SDS011;33618;49.972;8.242;2023-01-05T07:27:34;7.13;;;1.35;;
47856;SDS011;33618;49.972;8.242;2023-01-05T07:30:01;7.25;;;1.70;;
47856;SDS011;33618;49.972;8.242;2023-01-05T07:32:28;7.38;;;1.55;;
47856;SDS011;33618;49.972;8.242;2023-01-05T07:34:55;4.60;;;1.35;;
47856;SDS011;33618;49.972;8.242;2023-01-05T07:37:22;6.15;;;1.48;;
47856;SDS011;33618;49.972;8.242;2023-01-05T07:39:50;4.22;;;1.17;;
47856;SDS011;33618;49.972;8.242;2023-01-05T07:42:18;5.20;;;1.20;;
47856;SDS011;33618;49.972;8.242;2023-01-05T07:44:45;6.13;;;1.40;;
47856;SDS011;33618;49.972;8.242;2023-01-05T07:47:17;9.68;;;1.13;;
47856;SDS011;33618;49.972;8.242;2023-01-05T07:49:44;5.57;;;1.10;;
47856;SDS011;33618;49.972;8.242;2023-01-05T07:52:11;6.35;;;1.70;;
47856;SDS011;33618;49.972;8.242;2023-01-05T07:54:39;9.27;;;1.40;;
47856;SDS011;33618;49.972;8.242;2023-01-05T07:57:11;4.32;;;1.20;;
47856;SDS011;33618;49.972;8.242;2023-01-05T07:59:38;8.32;;;1.35;;
47856;SDS011;33618;49.972;8.242;2023-01-05T08:02:04;5.35;;;1.35;;
47856;SDS011;33618;49.972;8.242;2023-01-05T08:04:32;5.32;;;1.10;;
47856;SDS011;33618;49.972;8.242;2023-01-05T08:06:59;7.93;;;1.60;;
47856;SDS011;33618;49.972;8.242;2023-01-05T08:09:35;9.85;;;1.95;;
47856;SDS011;33618;49.972;8.242;2023-01-05T08:12:26;10.80;;;1.92;;
47856;SDS011;33618;49.972;8.242;2023-01-05T08:14:54;10.35;;;1.98;;
47856;SDS011;33618;49.972;8.242;2023-01-05T08:17:21;8.15;;;1.40;;
47856;SDS011;33618;49.972;8.242;2023-01-05T08:19:48;9.27;;;1.90;;
47856;SDS011;33618;49.972;8.242;2023-01-05T08:22:15;10.70;;;1.65;;
47856;SDS011;33618;49.972;8.242;2023-01-05T08:24:42;6.40;;;1.20;;
47856;SDS011;33618;49.972;8.242;2023-01-05T08:27:08;31.95;;;2.42;;
47856;SDS011;33618;49.972;8.242;2023-01-05T08:29:35;9.05;;;2.38;;
47856;SDS011;33618;49.972;8.242;2023-01-05T08:32:02;8.32;;;1.70;;
47856;SDS011;33618;49.972;8.242;2023-01-05T08:34:30;11.18;;;1.80;;
47856;SDS011;33618;49.972;8.242;2023-01-05T08:37:01;14.13;;;2.15;;
47856;SDS011;33618;49.972;8.242;2023-01-05T08:39:32;9.57;;;1.45;;
47856;SDS011;33618;49.972;8.242;2023-01-05T08:42:02;7.40;;;1.55;;
47856;SDS011;33618;49.972;8.242;2023-01-05T08:44:29;8.38;;;2.17;;
47856;SDS011;33618;49.972;8.242;2023-01-05T08:46:56;12.88;;;1.90;;
47856;SDS011;33618;49.972;8.242;2023-01-05T08:49:23;9.77;;;1.73;;
47856;SDS011;33618;49.972;8.242;2023-01-05T08:51:50;9.68;;;2.25;;
47856;SDS011;33618;49.972;8.242;2023-01-05T08:54:17;6.93;;;1.83;;
47856;SDS011;33618;49.972;8.242;2023-01-05T08:56:45;9.27;;;1.60;;
47856;SDS011;33618;49.972;8.242;2023-01-05T08:59:17;11.75;;;2.25;;
47856;SDS011;33618;49.972;8.242;2023-01-05T09:01:45;11.68;;;2.17;;
47856;SDS011;33618;49.972;8.242;2023-01-05T09:04:16;8.98;;;1.60;;
47856;SDS011;33618;49.972;8.242;2023-01-05T09:06:44;20.15;;;2.25;;
47856;SDS011;33618;49.972;8.242;2023-01-05T09:09:16;10.15;;;2.38;;
47856;SDS011;33618;49.972;8.242;2023-01-05T09:11:43;6.18;;;1.90;;
47856;SDS011;33618;49.972;8.242;2023-01-05T09:14:11;7.57;;;1.95;;
47856;SDS011;33618;49.972;8.242;2023-01-05T09:16:42;2.00;;;1.30;;
47856;SDS011;33618;49.972;8.242;2023-01-05T09:19:29;4.55;;;1.30;;
47856;SDS011;33618;49.972;8.242;2023-01-05T09:21:57;7.38;;;1.60;;
47856;SDS011;33618;49.972;8.242;2023-01-05T09:24:25;9.20;;;1.60;;
47856;SDS011;33618;49.972;8.242;2023-01-05T09:26:52;9.65;;;1.95;;
47856;SDS011;33618;49.972;8.242;2023-01-05T09:29:19;8.65;;;1.90;;
47856;SDS011;33618;49.972;8.242;2023-01-05T09:31:49;6.25;;;1.70;;
47856;SDS011;33618;49.972;8.242;2023-01-05T09:34:17;8.40;;;1.48;;
47856;SDS011;33618;49.972;8.242;2023-01-05T09:36:44;8.20;;;1.73;;
47856;SDS011;33618;49.972;8.242;2023-01-05T09:39:12;10.02;;;1.73;;
47856;SDS011;33618;49.972;8.242;2023-01-05T09:41:45;7.28;;;2.00;;
47856;SDS011;33618;49.972;8.242;2023-01-05T09:47:01;8.63;;;1.63;;
47856;SDS011;33618;49.972;8.242;2023-01-05T09:49:31;6.80;;;1.70;;
47856;SDS011;33618;49.972;8.242;2023-01-05T09:52:01;8.38;;;1.67;;
47856;SDS011;33618;49.972;8.242;2023-01-05T09:54:35;7.88;;;1.73;;
47856;SDS011;33618;49.972;8.242;2023-01-05T09:57:03;8.85;;;1.45;;
47856;SDS011;33618;49.972;8.242;2023-01-05T09:59:46;11.20;;;2.10;;
47856;SDS011;33618;49.972;8.242;2023-01-05T10:05:14;10.60;;;1.63;;
47856;SDS011;33618;49.972;8.242;2023-01-05T10:07:43;9.65;;;2.28;;
47856;SDS011;33618;49.972;8.242;2023-01-05T10:13:26;15.63;;;1.65;;
47856;SDS011;33618;49.972;8.242;2023-01-05T10:15:56;10.35;;;1.70;;
47856;SDS011;33618;49.972;8.242;2023-01-05T10:18:24;11.20;;;2.22;;
47856;SDS011;33618;49.972;8.242;2023-01-05T10:21:02;10.13;;;2.28;;
47856;SDS011;33618;49.972;8.242;2023-01-05T10:26:48;16.27;;;2.05;;
47856;SDS011;33618;49.972;8.242;2023-01-05T10:29:57;10.38;;;2.20;;
47856;SDS011;33618;49.972;8.242;2023-01-05T11:09:40;11.05;;;2.33;;
47856;SDS011;33618;49.972;8.242;2023-01-05T11:12:24;8.43;;;1.75;;
47856;SDS011;33618;49.972;8.242;2023-01-05T11:14:55;13.30;;;2.00;;
47856;SDS011;33618;49.972;8.242;2023-01-05T11:19:55;14.15;;;2.40;;
47856;SDS011;33618;49.972;8.242;2023-01-05T11:22:30;8.57;;;2.30;;
47856;SDS011;33618;49.972;8.242;2023-01-05T11:25:11;10.90;;;2.30;;
47856;SDS011;33618;49.972;8.242;2023-01-05T11:27:43;18.45;;;2.42;;
47856;SDS011;33618;49.972;8.242;2023-01-05T11:30:21;13.15;;;2.55;;
47856;SDS011;33618;49.972;8.242;2023-01-05T11:32:51;13.50;;;2.67;;
47856;SDS011;33618;49.972;8.242;2023-01-05T11:35:27;15.32;;;2.80;;
47856;SDS011;33618;49.972;8.242;2023-01-05T11:37:57;20.13;;;2.60;;
47856;SDS011;33618;49.972;8.242;2023-01-05T11:40:29;11.77;;;2.28;;
47856;SDS011;33618;49.972;8.242;2023-01-05T11:42:59;15.65;;;2.20;;
47856;SDS011;33618;49.972;8.242;2023-01-05T11:45:39;16.42;;;2.50;;
47856;SDS011;33618;49.972;8.242;2023-01-05T11:48:14;12.32;;;2.35;;
47856;SDS011;33618;49.972;8.242;2023-01-05T11:50:50;12.57;;;2.40;;
47856;SDS011;33618;49.972;8.242;2023-01-05T11:53:23;14.77;;;2.50;;
47856;SDS011;33618;49.972;8.242;2023-01-05T12:27:25;10.02;;;2.10;;
47856;SDS011;33618;49.972;8.242;2023-01-05T12:33:25;13.20;;;2.42;;
47856;SDS011;33618;49.972;8.242;2023-01-05T12:36:27;10.65;;;1.83;;
47856;SDS011;33618;49.972;8.242;2023-01-05T12:50:55;12.40;;;2.60;;
47856;SDS011;33618;49.972;8.242;2023-01-05T12:56:16;12.65;;;2.38;;
47856;SDS011;33618;49.972;8.242;2023-01-05T13:01:58;11.95;;;2.47;;
47856;SDS011;33618;49.972;8.242;2023-01-05T13:12:59;12.85;;;2.15;;
47856;SDS011;33618;49.972;8.242;2023-01-05T13:15:34;11.48;;;2.00;;
47856;SDS011;33618;49.972;8.242;2023-01-05T13:18:15;12.60;;;2.20;;
47856;SDS011;33618;49.972;8.242;2023-01-05T13:20:50;6.53;;;2.20;;
47856;SDS011;33618;49.972;8.242;2023-01-05T13:23:39;5.88;;;1.50;;
47856;SDS011;33618;49.972;8.242;2023-01-05T13:26:31;8.95;;;1.67;;
47856;SDS011;33618;49.972;8.242;2023-01-05T13:29:03;9.88;;;2.17;;
47856;SDS011;33618;49.972;8.242;2023-01-05T13:34:36;6.75;;;2.05;;
47856;SDS011;33618;49.972;8.242;2023-01-05T13:43:35;6.97;;;1.90;;
47856;SDS011;33618;49.972;8.242;2023-01-05T13:52:00;11.65;;;2.00;;
47856;SDS011;33618;49.972;8.242;2023-01-05T13:54:44;12.25;;;2.20;;
47856;SDS011;33618;49.972;8.242;2023-01-05T13:57:34;9.73;;;1.90;;
47856;SDS011;33618;49.972;8.242;2023-01-05T14:00:47;11.30;;;2.08;;
47856;SDS011;33618;49.972;8.242;2023-01-05T14:03:05;13.27;;;2.55;;
47856;SDS011;33618;49.972;8.242;2023-01-05T14:06:07;11.65;;;1.98;;
47856;SDS011;33618;49.972;8.242;2023-01-05T14:08:57;8.45;;;2.53;;
47856;SDS011;33618;49.972;8.242;2023-01-05T14:11:35;15.10;;;2.83;;
47856;SDS011;33618;49.972;8.242;2023-01-05T14:14:04;12.02;;;2.28;;
47856;SDS011;33618;49.972;8.242;2023-01-05T14:19:11;10.45;;;1.83;;
47856;SDS011;33618;49.972;8.242;2023-01-05T14:32:18;9.88;;;2.28;;
47856;SDS011;33618;49.972;8.242;2023-01-05T14:34:54;13.20;;;2.67;;
47856;SDS011;33618;49.972;8.242;2023-01-05T14:40:00;13.02;;;2.03;;
47856;SDS011;33618;49.972;8.242;2023-01-05T14:42:35;18.85;;;3.03;;
47856;SDS011;33618;49.972;8.242;2023-01-05T14:45:07;15.80;;;2.70;;
47856;SDS011;33618;49.972;8.242;2023-01-05T14:47:49;15.05;;;2.53;;
47856;SDS011;33618;49.972;8.242;2023-01-05T14:50:53;11.13;;;2.45;;
47856;SDS011;33618;49.972;8.242;2023-01-05T15:04:11;15.88;;;2.60;;
47856;SDS011;33618;49.972;8.242;2023-01-05T15:09:27;12.68;;;2.55;;
47856;SDS011;33618;49.972;8.242;2023-01-05T15:12:33;13.05;;;2.55;;
47856;SDS011;33618;49.972;8.242;2023-01-05T15:15:18;18.48;;;2.90;;
47856;SDS011;33618;49.972;8.242;2023-01-05T15:30:25;12.15;;;2.70;;
47856;SDS011;33618;49.972;8.242;2023-01-05T15:32:41;14.18;;;2.42;;
47856;SDS011;33618;49.972;8.242;2023-01-05T15:35:15;19.23;;;3.17;;
47856;SDS011;33618;49.972;8.242;2023-01-05T15:37:44;15.70;;;2.63;;
47856;SDS011;33618;49.972;8.242;2023-01-05T15:42:47;16.63;;;2.90;;
47856;SDS011;33618;49.972;8.242;2023-01-05T15:45:22;14.15;;;3.15;;
47856;SDS011;33618;49.972;8.242;2023-01-05T15:47:51;10.88;;;2.70;;
47856;SDS011;33618;49.972;8.242;2023-01-05T15:50:23;12.75;;;2.80;;
47856;SDS011;33618;49.972;8.242;2023-01-05T15:52:55;13.48;;;2.88;;
47856;SDS011;33618;49.972;8.242;2023-01-05T15:55:24;12.43;;;2.50;;
47856;SDS011;33618;49.972;8.242;2023-01-05T15:57:54;19.10;;;2.88;;
47856;SDS011;33618;49.972;8.242;2023-01-05T16:00:25;9.60;;;2.13;;
47856;SDS011;33618;49.972;8.242;2023-01-05T16:02:57;12.02;;;2.95;;
47856;SDS011;33618;49.972;8.242;2023-01-05T16:05:25;14.05;;;2.90;;
47856;SDS011;33618;49.972;8.242;2023-01-05T16:07:57;8.18;;;2.47;;
47856;SDS011;33618;49.972;8.242;2023-01-05T16:10:33;14.82;;;2.97;;
47856;SDS011;33618;49.972;8.242;2023-01-05T16:15:42;12.20;;;2.80;;
47856;SDS011;33618;49.972;8.242;2023-01-05T16:18:13;16.45;;;3.25;;
47856;SDS011;33618;49.972;8.242;2023-01-05T16:20:43;18.58;;;3.30;;
47856;SDS011;33618;49.972;8.242;2023-01-05T16:26:03;16.55;;;3.17;;
47856;SDS011;33618;49.972;8.242;2023-01-05T16:28:31;10.30;;;2.70;;
47856;SDS011;33618;49.972;8.242;2023-01-05T16:30:58;14.10;;;3.10;;
47856;SDS011;33618;49.972;8.242;2023-01-05T16:33:37;14.50;;;3.00;;
47856;SDS011;33618;49.972;8.242;2023-01-05T16:36:19;14.68;;;3.47;;
47856;SDS011;33618;49.972;8.242;2023-01-05T16:38:47;16.85;;;3.15;;
47856;SDS011;33618;49.972;8.242;2023-01-05T16:41:23;14.73;;;3.03;;
47856;SDS011;33618;49.972;8.242;2023-01-05T16:46:35;20.10;;;5.32;;
47856;SDS011;33618;49.972;8.242;2023-01-05T16:49:24;17.55;;;3.30;;
47856;SDS011;33618;49.972;8.242;2023-01-05T16:51:57;13.05;;;3.10;;
47856;SDS011;33618;49.972;8.242;2023-01-05T16:54:26;19.23;;;3.55;;
47856;SDS011;33618;49.972;8.242;2023-01-05T16:57:03;14.07;;;3.53;;
47856;SDS011;33618;49.972;8.242;2023-01-05T16:59:54;14.85;;;3.30;;
47856;SDS011;33618;49.972;8.242;2023-01-05T17:05:14;12.45;;;3.10;;
47856;SDS011;33618;49.972;8.242;2023-01-05T17:07:46;18.17;;;3.78;;
47856;SDS011;33618;49.972;8.242;2023-01-05T17:10:23;16.58;;;3.88;;
47856;SDS011;33618;49.972;8.242;2023-01-05T17:12:53;14.35;;;3.65;;
47856;SDS011;33618;49.972;8.242;2023-01-05T17:15:28;12.57;;;3.47;;
47856;SDS011;33618;49.972;8.242;2023-01-05T17:18:01;15.10;;;3.28;;
47856;SDS011;33618;49.972;8.242;2023-01-05T17:20:44;15.20;;;3.72;;
47856;SDS011;33618;49.972;8.242;2023-01-05T17:23:58;12.10;;;3.38;;
47856;SDS011;33618;49.972;8.242;2023-01-05T17:26:02;13.45;;;3.63;;
47856;SDS011;33618;49.972;8.242;2023-01-05T17:28:35;11.00;;;3.45;;
47856;SDS011;33618;49.972;8.242;2023-01-05T17:31:02;11.75;;;3.50;;
47856;SDS011;33618;49.972;8.242;2023-01-05T17:33:29;19.85;;;3.28;;
47856;SDS011;33618;49.972;8.242;2023-01-05T17:35:56;16.98;;;3.22;;
47856;SDS011;33618;49.972;8.242;2023-01-05T17:38:24;14.05;;;2.97;;
47856;SDS011;33618;49.972;8.242;2023-01-05T17:40:51;16.25;;;2.80;;
47856;SDS011;33618;49.972;8.242;2023-01-05T17:43:18;13.50;;;3.50;;
47856;SDS011;33618;49.972;8.242;2023-01-05T17:45:46;15.75;;;3.40;;
47856;SDS011;33618;49.972;8.242;2023-01-05T17:48:13;14.52;;;3.03;;
47856;SDS011;33618;49.972;8.242;2023-01-05T17:50:42;20.05;;;3.47;;
47856;SDS011;33618;49.972;8.242;2023-01-05T17:53:10;14.13;;;3.03;;
47856;SDS011;33618;49.972;8.242;2023-01-05T17:55:37;9.82;;;2.92;;
47856;SDS011;33618;49.972;8.242;2023-01-05T17:58:07;14.40;;;3.00;;
47856;SDS011;33618;49.972;8.242;2023-01-05T18:00:36;7.95;;;2.90;;
47856;SDS011;33618;49.972;8.242;2023-01-05T18:03:14;9.57;;;2.70;;
47856;SDS011;33618;49.972;8.242;2023-01-05T18:05:42;20.00;;;3.08;;
47856;SDS011;33618;49.972;8.242;2023-01-05T18:08:10;12.27;;;2.78;;
47856;SDS011;33618;49.972;8.242;2023-01-05T18:10:38;13.50;;;3.05;;
47856;SDS011;33618;49.972;8.242;2023-01-05T18:13:11;16.67;;;3.13;;
47856;SDS011;33618;49.972;8.242;2023-01-05T18:15:40;9.15;;;2.92;;
47856;SDS011;33618;49.972;8.242;2023-01-05T18:18:08;15.88;;;3.30;;
47856;SDS011;33618;49.972;8.242;2023-01-05T18:20:38;11.02;;;2.70;;
47856;SDS011;33618;49.972;8.242;2023-01-05T18:23:07;10.27;;;3.17;;
47856;SDS011;33618;49.972;8.242;2023-01-05T18:25:36;12.23;;;2.97;;
47856;SDS011;33618;49.972;8.242;2023-01-05T18:28:04;10.40;;;2.33;;
47856;SDS011;33618;49.972;8.242;2023-01-05T18:30:31;10.93;;;2.55;;
47856;SDS011;33618;49.972;8.242;2023-01-05T18:32:59;6.95;;;2.35;;
47856;SDS011;33618;49.972;8.242;2023-01-05T18:35:26;16.42;;;2.75;;
47856;SDS011;33618;49.972;8.242;2023-01-05T18:37:53;14.02;;;3.05;;
47856;SDS011;33618;49.972;8.242;2023-01-05T18:40:26;13.70;;;2.95;;
47856;SDS011;33618;49.972;8.242;2023-01-05T18:42:53;16.25;;;2.92;;
47856;SDS011;33618;49.972;8.242;2023-01-05T18:45:21;12.45;;;2.97;;
47856;SDS011;33618;49.972;8.242;2023-01-05T18:47:57;9.18;;;2.72;;